sensor_id;sensor_type;location;lat;lon;timestamp;P1;durP1;ratioP1;P2;durP2;ratioP2
68923;SDS011;55961;52.156;20.942;2023-12-07T00:02:13;42.88;;;14.13;;
68923;SDS011;55961;52.156;20.942;2023-12-07T00:04:39;39.80;;;13.98;;
68923;SDS011;55961;52.156;20.942;2023-12-07T00:07:05;48.43;;;15.27;;
68923;SDS011;55961;52.156;20.942;2023-12-07T00:09:31;35.92;;;12.82;;
68923;SDS011;55961;52.156;20.942;2023-12-07T00:11:57;43.17;;;14.90;;
68923;SDS011;55961;52.156;20.942;2023-12-07T00:14:23;44.27;;;15.47;;
68923;SDS011;55961;52.156;20.942;2023-12-07T00:16:49;47.40;;;15.02;;
68923;SDS011;55961;52.156;20.942;2023-12-07T00:19:15;40.42;;;14.90;;
68923;SDS011;55961;52.156;20.942;2023-12-07T00:21:41;43.03;;;14.07;;
68923;SDS011;55961;52.156;20.942;2023-12-07T00:24:07;42.08;;;14.00;;
68923;SDS011;55961;52.156;20.942;2023-12-07T00:26:33;45.63;;;15.07;;
68923;SDS011;55961;52.156;20.942;2023-12-07T00:28:59;44.38;;;15.32;;
68923;SDS011;55961;52.156;20.942;2023-12-07T00:31:25;44.63;;;15.27;;
68923;SDS011;55961;52.156;20.942;2023-12-07T00:33:51;45.23;;;15.00;;
68923;SDS011;55961;52.156;20.942;2023-12-07T00:36:17;46.45;;;15.73;;
68923;SDS011;55961;52.156;20.942;2023-12-07T00:38:43;46.53;;;14.70;;
68923;SDS011;55961;52.156;20.942;2023-12-07T00:41:09;42.10;;;14.10;;
68923;SDS011;55961;52.156;20.942;2023-12-07T00:43:35;47.88;;;16.52;;
68923;SDS011;55961;52.156;20.942;2023-12-07T00:46:01;40.58;;;13.65;;
68923;SDS011;55961;52.156;20.942;2023-12-07T00:48:27;42.65;;;15.45;;
68923;SDS011;55961;52.156;20.942;2023-12-07T00:50:53;46.97;;;14.83;;
68923;SDS011;55961;52.156;20.942;2023-12-07T00:53:19;43.25;;;14.43;;
68923;SDS011;55961;52.156;20.942;2023-12-07T00:55:45;31.73;;;11.77;;
68923;SDS011;55961;52.156;20.942;2023-12-07T00:58:11;35.55;;;12.30;;
68923;SDS011;55961;52.156;20.942;2023-12-07T01:00:37;45.78;;;15.65;;
68923;SDS011;55961;52.156;20.942;2023-12-07T01:03:04;51.25;;;15.80;;
68923;SDS011;55961;52.156;20.942;2023-12-07T01:05:31;49.73;;;15.53;;
68923;SDS011;55961;52.156;20.942;2023-12-07T01:07:57;52.30;;;15.57;;
68923;SDS011;55961;52.156;20.942;2023-12-07T01:10:23;46.85;;;15.02;;
68923;SDS011;55961;52.156;20.942;2023-12-07T01:12:49;41.50;;;14.10;;
68923;SDS011;55961;52.156;20.942;2023-12-07T01:15:16;48.80;;;15.07;;
68923;SDS011;55961;52.156;20.942;2023-12-07T01:17:42;46.90;;;15.60;;
68923;SDS011;55961;52.156;20.942;2023-12-07T01:20:08;46.90;;;14.98;;
68923;SDS011;55961;52.156;20.942;2023-12-07T01:22:38;46.70;;;15.48;;
68923;SDS011;55961;52.156;20.942;2023-12-07T01:25:06;51.03;;;16.40;;
68923;SDS011;55961;52.156;20.942;2023-12-07T01:27:32;44.20;;;13.38;;
68923;SDS011;55961;52.156;20.942;2023-12-07T01:29:58;48.13;;;15.15;;
68923;SDS011;55961;52.156;20.942;2023-12-07T01:32:24;53.42;;;16.52;;
68923;SDS011;55961;52.156;20.942;2023-12-07T01:34:50;51.00;;;16.07;;
68923;SDS011;55961;52.156;20.942;2023-12-07T01:37:16;43.13;;;14.40;;
68923;SDS011;55961;52.156;20.942;2023-12-07T01:39:42;41.17;;;13.63;;
68923;SDS011;55961;52.156;20.942;2023-12-07T01:42:09;48.28;;;15.10;;
68923;SDS011;55961;52.156;20.942;2023-12-07T01:44:37;52.77;;;15.57;;
68923;SDS011;55961;52.156;20.942;2023-12-07T01:47:04;43.97;;;14.02;;
68923;SDS011;55961;52.156;20.942;2023-12-07T01:49:33;45.65;;;14.27;;
68923;SDS011;55961;52.156;20.942;2023-12-07T01:52:01;50.72;;;15.35;;
68923;SDS011;55961;52.156;20.942;2023-12-07T01:54:28;53.83;;;15.40;;
68923;SDS011;55961;52.156;20.942;2023-12-07T01:56:54;49.27;;;14.67;;
68923;SDS011;55961;52.156;20.942;2023-12-07T01:59:21;47.42;;;14.77;;
68923;SDS011;55961;52.156;20.942;2023-12-07T02:01:47;51.83;;;15.38;;
68923;SDS011;55961;52.156;20.942;2023-12-07T02:04:13;39.63;;;10.73;;
68923;SDS011;55961;52.156;20.942;2023-12-07T02:06:40;50.23;;;14.90;;
68923;SDS011;55961;52.156;20.942;2023-12-07T02:09:06;52.45;;;14.55;;
68923;SDS011;55961;52.156;20.942;2023-12-07T02:11:32;46.97;;;14.60;;
68923;SDS011;55961;52.156;20.942;2023-12-07T02:13:58;55.40;;;15.47;;
68923;SDS011;55961;52.156;20.942;2023-12-07T02:16:31;51.70;;;16.90;;
68923;SDS011;55961;52.156;20.942;2023-12-07T02:22:10;49.22;;;15.88;;
68923;SDS011;55961;52.156;20.942;2023-12-07T02:24:44;40.58;;;12.63;;
68923;SDS011;55961;52.156;20.942;2023-12-07T02:27:38;50.27;;;14.73;;
68923;SDS011;55961;52.156;20.942;2023-12-07T02:30:06;47.28;;;14.38;;
68923;SDS011;55961;52.156;20.942;2023-12-07T02:32:34;51.63;;;14.57;;
68923;SDS011;55961;52.156;20.942;2023-12-07T02:35:02;45.03;;;13.07;;
68923;SDS011;55961;52.156;20.942;2023-12-07T02:37:29;54.75;;;14.70;;
68923;SDS011;55961;52.156;20.942;2023-12-07T02:40:02;48.43;;;13.87;;
68923;SDS011;55961;52.156;20.942;2023-12-07T02:42:30;55.75;;;14.55;;
68923;SDS011;55961;52.156;20.942;2023-12-07T02:44:58;56.45;;;14.85;;
68923;SDS011;55961;52.156;20.942;2023-12-07T02:47:24;45.22;;;12.35;;
68923;SDS011;55961;52.156;20.942;2023-12-07T02:49:50;48.95;;;14.93;;
68923;SDS011;55961;52.156;20.942;2023-12-07T02:52:16;59.57;;;15.60;;
68923;SDS011;55961;52.156;20.942;2023-12-07T02:54:42;55.28;;;17.05;;
68923;SDS011;55961;52.156;20.942;2023-12-07T02:57:08;50.55;;;14.25;;
68923;SDS011;55961;52.156;20.942;2023-12-07T02:59:34;48.93;;;14.50;;
68923;SDS011;55961;52.156;20.942;2023-12-07T03:02:00;54.72;;;14.38;;
68923;SDS011;55961;52.156;20.942;2023-12-07T03:04:26;50.92;;;15.60;;
68923;SDS011;55961;52.156;20.942;2023-12-07T03:06:52;51.83;;;14.75;;
68923;SDS011;55961;52.156;20.942;2023-12-07T03:09:17;48.47;;;15.40;;
68923;SDS011;55961;52.156;20.942;2023-12-07T03:11:43;57.97;;;15.68;;
68923;SDS011;55961;52.156;20.942;2023-12-07T03:14:09;56.77;;;15.80;;
68923;SDS011;55961;52.156;20.942;2023-12-07T03:16:35;47.88;;;14.65;;
68923;SDS011;55961;52.156;20.942;2023-12-07T03:19:01;50.53;;;15.38;;
68923;SDS011;55961;52.156;20.942;2023-12-07T03:21:27;52.20;;;16.50;;
68923;SDS011;55961;52.156;20.942;2023-12-07T03:23:53;55.13;;;14.80;;
68923;SDS011;55961;52.156;20.942;2023-12-07T03:26:19;51.95;;;15.02;;
68923;SDS011;55961;52.156;20.942;2023-12-07T03:28:45;52.53;;;15.40;;
68923;SDS011;55961;52.156;20.942;2023-12-07T03:31:11;48.03;;;14.38;;
68923;SDS011;55961;52.156;20.942;2023-12-07T03:33:37;48.35;;;15.50;;
68923;SDS011;55961;52.156;20.942;2023-12-07T03:36:04;49.75;;;15.02;;
68923;SDS011;55961;52.156;20.942;2023-12-07T03:38:30;50.30;;;14.37;;
68923;SDS011;55961;52.156;20.942;2023-12-07T03:40:56;46.92;;;13.15;;
68923;SDS011;55961;52.156;20.942;2023-12-07T03:43:22;47.72;;;14.52;;
68923;SDS011;55961;52.156;20.942;2023-12-07T03:45:48;53.20;;;14.40;;
68923;SDS011;55961;52.156;20.942;2023-12-07T03:48:13;47.73;;;14.10;;
68923;SDS011;55961;52.156;20.942;2023-12-07T03:50:39;50.53;;;15.20;;
68923;SDS011;55961;52.156;20.942;2023-12-07T03:53:05;49.33;;;14.27;;
68923;SDS011;55961;52.156;20.942;2023-12-07T03:55:31;44.75;;;14.02;;
68923;SDS011;55961;52.156;20.942;2023-12-07T03:57:57;45.87;;;13.50;;
68923;SDS011;55961;52.156;20.942;2023-12-07T04:00:23;52.35;;;14.50;;
68923;SDS011;55961;52.156;20.942;2023-12-07T04:02:49;46.03;;;13.70;;
68923;SDS011;55961;52.156;20.942;2023-12-07T04:05:15;43.47;;;14.18;;
68923;SDS011;55961;52.156;20.942;2023-12-07T04:07:41;48.88;;;14.48;;
68923;SDS011;55961;52.156;20.942;2023-12-07T04:10:07;48.50;;;14.27;;
68923;SDS011;55961;52.156;20.942;2023-12-07T04:12:33;42.43;;;13.67;;
68923;SDS011;55961;52.156;20.942;2023-12-07T04:14:59;46.70;;;14.95;;
68923;SDS011;55961;52.156;20.942;2023-12-07T04:17:25;48.20;;;14.02;;
68923;SDS011;55961;52.156;20.942;2023-12-07T04:19:51;45.78;;;13.45;;
68923;SDS011;55961;52.156;20.942;2023-12-07T04:22:17;48.93;;;14.63;;
68923;SDS011;55961;52.156;20.942;2023-12-07T04:24:43;48.97;;;14.10;;
68923;SDS011;55961;52.156;20.942;2023-12-07T04:27:08;44.37;;;14.40;;
68923;SDS011;55961;52.156;20.942;2023-12-07T04:29:35;44.38;;;14.15;;
68923;SDS011;55961;52.156;20.942;2023-12-07T04:32:01;51.33;;;16.00;;
68923;SDS011;55961;52.156;20.942;2023-12-07T04:34:27;51.97;;;15.85;;
68923;SDS011;55961;52.156;20.942;2023-12-07T04:36:53;53.53;;;16.47;;
68923;SDS011;55961;52.156;20.942;2023-12-07T04:39:19;58.90;;;17.98;;
68923;SDS011;55961;52.156;20.942;2023-12-07T04:41:45;52.03;;;18.75;;
68923;SDS011;55961;52.156;20.942;2023-12-07T04:44:11;54.10;;;17.73;;
68923;SDS011;55961;52.156;20.942;2023-12-07T04:46:37;57.78;;;18.80;;
68923;SDS011;55961;52.156;20.942;2023-12-07T04:49:03;58.42;;;19.63;;
68923;SDS011;55961;52.156;20.942;2023-12-07T04:51:29;55.17;;;18.70;;
68923;SDS011;55961;52.156;20.942;2023-12-07T04:53:55;56.72;;;19.55;;
68923;SDS011;55961;52.156;20.942;2023-12-07T04:56:20;65.03;;;20.10;;
68923;SDS011;55961;52.156;20.942;2023-12-07T04:58:46;58.07;;;19.60;;
68923;SDS011;55961;52.156;20.942;2023-12-07T05:01:12;34.80;;;12.48;;
68923;SDS011;55961;52.156;20.942;2023-12-07T05:03:38;51.17;;;17.92;;
68923;SDS011;55961;52.156;20.942;2023-12-07T05:06:04;61.00;;;19.13;;
68923;SDS011;55961;52.156;20.942;2023-12-07T05:08:30;58.08;;;17.77;;
68923;SDS011;55961;52.156;20.942;2023-12-07T05:10:57;61.40;;;18.88;;
68923;SDS011;55961;52.156;20.942;2023-12-07T05:13:23;57.78;;;19.05;;
68923;SDS011;55961;52.156;20.942;2023-12-07T05:15:49;50.37;;;18.77;;
68923;SDS011;55961;52.156;20.942;2023-12-07T05:18:15;46.80;;;16.35;;
68923;SDS011;55961;52.156;20.942;2023-12-07T05:20:40;54.93;;;15.83;;
68923;SDS011;55961;52.156;20.942;2023-12-07T05:23:08;47.00;;;15.53;;
68923;SDS011;55961;52.156;20.942;2023-12-07T05:25:34;50.22;;;15.68;;
68923;SDS011;55961;52.156;20.942;2023-12-07T05:28:00;52.08;;;15.10;;
68923;SDS011;55961;52.156;20.942;2023-12-07T05:30:26;52.40;;;15.27;;
68923;SDS011;55961;52.156;20.942;2023-12-07T05:32:53;44.90;;;14.43;;
68923;SDS011;55961;52.156;20.942;2023-12-07T05:35:19;47.05;;;13.80;;
68923;SDS011;55961;52.156;20.942;2023-12-07T05:37:46;46.97;;;14.25;;
68923;SDS011;55961;52.156;20.942;2023-12-07T05:40:11;42.07;;;13.60;;
68923;SDS011;55961;52.156;20.942;2023-12-07T05:42:38;50.08;;;14.85;;
68923;SDS011;55961;52.156;20.942;2023-12-07T05:45:03;39.63;;;13.95;;
68923;SDS011;55961;52.156;20.942;2023-12-07T05:47:32;43.20;;;13.52;;
68923;SDS011;55961;52.156;20.942;2023-12-07T05:49:57;37.07;;;12.43;;
68923;SDS011;55961;52.156;20.942;2023-12-07T05:52:25;33.85;;;12.23;;
68923;SDS011;55961;52.156;20.942;2023-12-07T05:54:51;41.07;;;13.83;;
68923;SDS011;55961;52.156;20.942;2023-12-07T05:57:17;33.13;;;10.83;;
68923;SDS011;55961;52.156;20.942;2023-12-07T05:59:43;38.80;;;12.88;;
68923;SDS011;55961;52.156;20.942;2023-12-07T06:02:09;37.22;;;12.70;;
68923;SDS011;55961;52.156;20.942;2023-12-07T06:04:36;39.50;;;13.57;;
68923;SDS011;55961;52.156;20.942;2023-12-07T06:07:02;37.33;;;12.73;;
68923;SDS011;55961;52.156;20.942;2023-12-07T06:09:28;27.07;;;9.87;;
68923;SDS011;55961;52.156;20.942;2023-12-07T06:11:54;43.25;;;13.82;;
68923;SDS011;55961;52.156;20.942;2023-12-07T06:14:20;42.97;;;11.93;;
68923;SDS011;55961;52.156;20.942;2023-12-07T06:16:48;38.85;;;13.77;;
68923;SDS011;55961;52.156;20.942;2023-12-07T06:19:14;37.67;;;12.13;;
68923;SDS011;55961;52.156;20.942;2023-12-07T06:21:40;35.80;;;13.37;;
68923;SDS011;55961;52.156;20.942;2023-12-07T06:24:09;36.58;;;12.38;;
68923;SDS011;55961;52.156;20.942;2023-12-07T06:26:35;38.85;;;12.32;;
68923;SDS011;55961;52.156;20.942;2023-12-07T06:29:01;40.65;;;13.13;;
68923;SDS011;55961;52.156;20.942;2023-12-07T06:31:27;35.20;;;12.57;;
68923;SDS011;55961;52.156;20.942;2023-12-07T06:33:53;35.53;;;12.33;;
68923;SDS011;55961;52.156;20.942;2023-12-07T06:36:20;34.33;;;11.98;;
68923;SDS011;55961;52.156;20.942;2023-12-07T06:38:47;36.35;;;11.52;;
68923;SDS011;55961;52.156;20.942;2023-12-07T06:41:14;31.87;;;11.47;;
68923;SDS011;55961;52.156;20.942;2023-12-07T06:43:40;33.83;;;11.80;;
68923;SDS011;55961;52.156;20.942;2023-12-07T06:46:06;37.67;;;13.10;;
68923;SDS011;55961;52.156;20.942;2023-12-07T06:48:32;38.88;;;12.20;;
68923;SDS011;55961;52.156;20.942;2023-12-07T06:50:59;37.20;;;13.20;;
68923;SDS011;55961;52.156;20.942;2023-12-07T06:53:24;38.78;;;12.45;;
68923;SDS011;55961;52.156;20.942;2023-12-07T06:55:50;40.50;;;12.30;;
68923;SDS011;55961;52.156;20.942;2023-12-07T06:58:16;35.23;;;11.33;;
68923;SDS011;55961;52.156;20.942;2023-12-07T07:00:43;31.33;;;11.55;;
68923;SDS011;55961;52.156;20.942;2023-12-07T07:03:08;34.60;;;12.23;;
68923;SDS011;55961;52.156;20.942;2023-12-07T07:05:34;36.10;;;11.38;;
68923;SDS011;55961;52.156;20.942;2023-12-07T07:08:00;32.67;;;12.50;;
68923;SDS011;55961;52.156;20.942;2023-12-07T07:10:26;35.70;;;13.20;;
68923;SDS011;55961;52.156;20.942;2023-12-07T07:12:52;37.30;;;12.83;;
68923;SDS011;55961;52.156;20.942;2023-12-07T07:15:18;29.83;;;11.35;;
68923;SDS011;55961;52.156;20.942;2023-12-07T07:17:44;38.90;;;12.77;;
68923;SDS011;55961;52.156;20.942;2023-12-07T07:20:11;32.20;;;11.18;;
68923;SDS011;55961;52.156;20.942;2023-12-07T07:22:36;38.17;;;12.47;;
68923;SDS011;55961;52.156;20.942;2023-12-07T07:25:03;37.60;;;13.40;;
68923;SDS011;55961;52.156;20.942;2023-12-07T07:27:29;32.70;;;11.90;;
68923;SDS011;55961;52.156;20.942;2023-12-07T07:29:55;37.65;;;13.88;;
68923;SDS011;55961;52.156;20.942;2023-12-07T07:32:21;29.43;;;11.43;;
68923;SDS011;55961;52.156;20.942;2023-12-07T07:34:47;35.92;;;13.27;;
68923;SDS011;55961;52.156;20.942;2023-12-07T07:37:13;35.17;;;12.73;;
68923;SDS011;55961;52.156;20.942;2023-12-07T07:39:39;36.13;;;12.97;;
68923;SDS011;55961;52.156;20.942;2023-12-07T07:42:05;39.88;;;13.77;;
68923;SDS011;55961;52.156;20.942;2023-12-07T07:44:31;33.15;;;11.80;;
68923;SDS011;55961;52.156;20.942;2023-12-07T07:46:57;34.70;;;12.80;;
68923;SDS011;55961;52.156;20.942;2023-12-07T07:49:23;35.60;;;12.70;;
68923;SDS011;55961;52.156;20.942;2023-12-07T07:51:49;33.63;;;12.40;;
68923;SDS011;55961;52.156;20.942;2023-12-07T07:54:16;32.35;;;11.90;;
68923;SDS011;55961;52.156;20.942;2023-12-07T07:56:43;36.80;;;12.10;;
68923;SDS011;55961;52.156;20.942;2023-12-07T07:59:09;35.47;;;12.57;;
68923;SDS011;55961;52.156;20.942;2023-12-07T08:01:35;33.28;;;11.48;;
68923;SDS011;55961;52.156;20.942;2023-12-07T08:04:01;31.90;;;12.13;;
68923;SDS011;55961;52.156;20.942;2023-12-07T08:06:27;32.58;;;12.98;;
68923;SDS011;55961;52.156;20.942;2023-12-07T08:08:53;32.45;;;12.45;;
68923;SDS011;55961;52.156;20.942;2023-12-07T08:11:19;35.47;;;12.43;;
68923;SDS011;55961;52.156;20.942;2023-12-07T08:13:45;41.83;;;14.07;;
68923;SDS011;55961;52.156;20.942;2023-12-07T08:16:11;31.75;;;13.27;;
68923;SDS011;55961;52.156;20.942;2023-12-07T08:18:37;39.13;;;14.27;;
68923;SDS011;55961;52.156;20.942;2023-12-07T08:21:03;28.40;;;12.10;;
68923;SDS011;55961;52.156;20.942;2023-12-07T08:23:29;43.22;;;13.70;;
68923;SDS011;55961;52.156;20.942;2023-12-07T08:25:55;39.72;;;13.65;;
68923;SDS011;55961;52.156;20.942;2023-12-07T08:28:22;35.67;;;13.33;;
68923;SDS011;55961;52.156;20.942;2023-12-07T08:30:48;40.67;;;13.40;;
68923;SDS011;55961;52.156;20.942;2023-12-07T08:33:14;34.10;;;13.57;;
68923;SDS011;55961;52.156;20.942;2023-12-07T08:35:40;36.87;;;14.17;;
68923;SDS011;55961;52.156;20.942;2023-12-07T08:38:06;34.28;;;12.70;;
68923;SDS011;55961;52.156;20.942;2023-12-07T08:40:32;36.40;;;16.38;;
68923;SDS011;55961;52.156;20.942;2023-12-07T08:42:58;34.75;;;13.27;;
68923;SDS011;55961;52.156;20.942;2023-12-07T08:45:24;39.03;;;15.80;;
68923;SDS011;55961;52.156;20.942;2023-12-07T08:47:50;37.78;;;14.82;;
68923;SDS011;55961;52.156;20.942;2023-12-07T08:50:16;37.50;;;15.38;;
68923;SDS011;55961;52.156;20.942;2023-12-07T08:52:42;42.05;;;15.82;;
68923;SDS011;55961;52.156;20.942;2023-12-07T08:55:08;38.23;;;13.80;;
68923;SDS011;55961;52.156;20.942;2023-12-07T08:57:34;43.60;;;15.45;;
68923;SDS011;55961;52.156;20.942;2023-12-07T09:00:00;26.85;;;10.70;;
68923;SDS011;55961;52.156;20.942;2023-12-07T09:02:26;38.40;;;15.45;;
68923;SDS011;55961;52.156;20.942;2023-12-07T09:04:52;40.97;;;15.10;;
68923;SDS011;55961;52.156;20.942;2023-12-07T09:07:18;41.90;;;14.23;;
68923;SDS011;55961;52.156;20.942;2023-12-07T09:09:44;37.90;;;13.80;;
68923;SDS011;55961;52.156;20.942;2023-12-07T09:12:13;38.88;;;13.50;;
68923;SDS011;55961;52.156;20.942;2023-12-07T09:14:39;31.30;;;12.02;;
68923;SDS011;55961;52.156;20.942;2023-12-07T09:17:06;31.63;;;12.45;;
68923;SDS011;55961;52.156;20.942;2023-12-07T09:19:31;40.67;;;13.70;;
68923;SDS011;55961;52.156;20.942;2023-12-07T09:21:58;37.47;;;15.18;;
68923;SDS011;55961;52.156;20.942;2023-12-07T09:24:24;35.17;;;13.52;;
68923;SDS011;55961;52.156;20.942;2023-12-07T09:26:50;35.90;;;12.95;;
68923;SDS011;55961;52.156;20.942;2023-12-07T09:29:15;35.73;;;13.50;;
68923;SDS011;55961;52.156;20.942;2023-12-07T09:31:42;36.50;;;14.32;;
68923;SDS011;55961;52.156;20.942;2023-12-07T09:34:08;39.10;;;14.88;;
68923;SDS011;55961;52.156;20.942;2023-12-07T09:36:34;38.65;;;13.65;;
68923;SDS011;55961;52.156;20.942;2023-12-07T09:39:00;44.30;;;15.70;;
68923;SDS011;55961;52.156;20.942;2023-12-07T09:41:26;37.20;;;14.77;;
68923;SDS011;55961;52.156;20.942;2023-12-07T09:43:53;31.38;;;12.77;;
68923;SDS011;55961;52.156;20.942;2023-12-07T09:46:20;37.35;;;15.05;;
68923;SDS011;55961;52.156;20.942;2023-12-07T09:48:46;43.27;;;15.07;;
68923;SDS011;55961;52.156;20.942;2023-12-07T09:51:15;39.92;;;15.60;;
68923;SDS011;55961;52.156;20.942;2023-12-07T09:53:42;39.15;;;16.35;;
68923;SDS011;55961;52.156;20.942;2023-12-07T09:56:10;35.47;;;14.73;;
68923;SDS011;55961;52.156;20.942;2023-12-07T09:58:36;30.73;;;12.60;;
68923;SDS011;55961;52.156;20.942;2023-12-07T10:01:04;39.45;;;16.17;;
68923;SDS011;55961;52.156;20.942;2023-12-07T10:03:30;31.02;;;12.35;;
68923;SDS011;55961;52.156;20.942;2023-12-07T10:05:59;40.65;;;15.88;;
68923;SDS011;55961;52.156;20.942;2023-12-07T10:08:30;32.88;;;11.90;;
68923;SDS011;55961;52.156;20.942;2023-12-07T10:11:31;35.03;;;14.37;;
68923;SDS011;55961;52.156;20.942;2023-12-07T10:13:49;44.30;;;16.52;;
68923;SDS011;55961;52.156;20.942;2023-12-07T10:16:16;41.08;;;17.55;;
68923;SDS011;55961;52.156;20.942;2023-12-07T10:18:42;40.10;;;17.50;;
68923;SDS011;55961;52.156;20.942;2023-12-07T10:21:09;45.08;;;17.38;;
68923;SDS011;55961;52.156;20.942;2023-12-07T10:23:38;39.70;;;15.47;;
68923;SDS011;55961;52.156;20.942;2023-12-07T10:26:06;34.67;;;13.00;;
68923;SDS011;55961;52.156;20.942;2023-12-07T10:28:33;42.05;;;17.88;;
68923;SDS011;55961;52.156;20.942;2023-12-07T10:31:08;52.67;;;20.35;;
68923;SDS011;55961;52.156;20.942;2023-12-07T10:33:35;44.55;;;17.58;;
68923;SDS011;55961;52.156;20.942;2023-12-07T10:36:02;38.07;;;16.17;;
68923;SDS011;55961;52.156;20.942;2023-12-07T10:38:29;41.65;;;16.75;;
68923;SDS011;55961;52.156;20.942;2023-12-07T10:41:04;38.65;;;17.02;;
68923;SDS011;55961;52.156;20.942;2023-12-07T10:43:35;47.45;;;16.98;;
68923;SDS011;55961;52.156;20.942;2023-12-07T10:46:04;42.20;;;15.25;;
68923;SDS011;55961;52.156;20.942;2023-12-07T10:48:31;36.27;;;15.07;;
68923;SDS011;55961;52.156;20.942;2023-12-07T10:50:58;38.92;;;14.95;;
68923;SDS011;55961;52.156;20.942;2023-12-07T10:53:27;42.03;;;15.95;;
68923;SDS011;55961;52.156;20.942;2023-12-07T10:56:01;37.97;;;15.82;;
68923;SDS011;55961;52.156;20.942;2023-12-07T10:58:30;36.75;;;15.80;;
68923;SDS011;55961;52.156;20.942;2023-12-07T11:00:59;33.30;;;15.37;;
68923;SDS011;55961;52.156;20.942;2023-12-07T11:03:26;37.38;;;15.45;;
68923;SDS011;55961;52.156;20.942;2023-12-07T11:05:55;38.33;;;15.95;;
68923;SDS011;55961;52.156;20.942;2023-12-07T11:13:53;35.38;;;15.55;;
68923;SDS011;55961;52.156;20.942;2023-12-07T11:16:31;38.42;;;14.70;;
68923;SDS011;55961;52.156;20.942;2023-12-07T11:19:01;32.58;;;14.13;;
68923;SDS011;55961;52.156;20.942;2023-12-07T11:21:27;35.38;;;15.43;;
68923;SDS011;55961;52.156;20.942;2023-12-07T11:23:53;47.50;;;19.27;;
68923;SDS011;55961;52.156;20.942;2023-12-07T11:26:20;42.45;;;17.85;;
68923;SDS011;55961;52.156;20.942;2023-12-07T11:28:50;41.50;;;16.05;;
68923;SDS011;55961;52.156;20.942;2023-12-07T11:31:17;47.75;;;19.25;;
68923;SDS011;55961;52.156;20.942;2023-12-07T11:33:43;45.33;;;18.13;;
68923;SDS011;55961;52.156;20.942;2023-12-07T11:36:09;40.03;;;15.60;;
68923;SDS011;55961;52.156;20.942;2023-12-07T11:38:37;33.92;;;14.98;;
68923;SDS011;55961;52.156;20.942;2023-12-07T11:41:04;37.75;;;16.38;;
68923;SDS011;55961;52.156;20.942;2023-12-07T11:46:03;49.80;;;20.92;;
68923;SDS011;55961;52.156;20.942;2023-12-07T11:48:29;48.57;;;19.17;;
68923;SDS011;55961;52.156;20.942;2023-12-07T11:50:58;46.17;;;17.85;;
68923;SDS011;55961;52.156;20.942;2023-12-07T11:53:26;43.88;;;18.45;;
68923;SDS011;55961;52.156;20.942;2023-12-07T11:55:57;37.85;;;14.85;;
68923;SDS011;55961;52.156;20.942;2023-12-07T11:58:25;24.37;;;11.03;;
68923;SDS011;55961;52.156;20.942;2023-12-07T12:00:51;42.83;;;16.35;;
68923;SDS011;55961;52.156;20.942;2023-12-07T12:03:18;44.90;;;18.45;;
68923;SDS011;55961;52.156;20.942;2023-12-07T12:05:45;41.15;;;18.08;;
68923;SDS011;55961;52.156;20.942;2023-12-07T12:08:11;41.72;;;15.10;;
68923;SDS011;55961;52.156;20.942;2023-12-07T12:10:38;45.00;;;18.60;;
68923;SDS011;55961;52.156;20.942;2023-12-07T12:13:05;48.63;;;19.30;;
68923;SDS011;55961;52.156;20.942;2023-12-07T12:15:31;38.95;;;16.83;;
68923;SDS011;55961;52.156;20.942;2023-12-07T12:17:58;40.20;;;17.10;;
68923;SDS011;55961;52.156;20.942;2023-12-07T12:20:25;44.53;;;18.65;;
68923;SDS011;55961;52.156;20.942;2023-12-07T12:22:51;36.00;;;13.87;;
68923;SDS011;55961;52.156;20.942;2023-12-07T12:25:24;44.55;;;18.33;;
68923;SDS011;55961;52.156;20.942;2023-12-07T12:27:53;34.53;;;16.48;;
68923;SDS011;55961;52.156;20.942;2023-12-07T12:30:21;45.53;;;17.70;;
68923;SDS011;55961;52.156;20.942;2023-12-07T12:32:48;40.22;;;16.83;;
68923;SDS011;55961;52.156;20.942;2023-12-07T12:35:16;42.90;;;18.57;;
68923;SDS011;55961;52.156;20.942;2023-12-07T12:37:45;45.83;;;18.77;;
68923;SDS011;55961;52.156;20.942;2023-12-07T12:40:15;55.83;;;21.83;;
68923;SDS011;55961;52.156;20.942;2023-12-07T12:42:47;64.10;;;25.90;;
68923;SDS011;55961;52.156;20.942;2023-12-07T12:45:15;44.72;;;17.80;;
68923;SDS011;55961;52.156;20.942;2023-12-07T12:47:43;36.50;;;14.93;;
68923;SDS011;55961;52.156;20.942;2023-12-07T12:50:12;48.05;;;18.67;;
68923;SDS011;55961;52.156;20.942;2023-12-07T12:52:57;43.55;;;18.92;;
68923;SDS011;55961;52.156;20.942;2023-12-07T12:55:27;35.28;;;11.73;;
68923;SDS011;55961;52.156;20.942;2023-12-07T12:57:54;28.58;;;12.88;;
68923;SDS011;55961;52.156;20.942;2023-12-07T13:00:21;37.27;;;16.17;;
68923;SDS011;55961;52.156;20.942;2023-12-07T13:02:47;43.50;;;17.52;;
68923;SDS011;55961;52.156;20.942;2023-12-07T13:05:14;28.25;;;13.20;;
68923;SDS011;55961;52.156;20.942;2023-12-07T13:07:40;38.90;;;16.77;;
68923;SDS011;55961;52.156;20.942;2023-12-07T13:10:06;39.97;;;16.60;;
68923;SDS011;55961;52.156;20.942;2023-12-07T13:12:33;42.65;;;17.52;;
68923;SDS011;55961;52.156;20.942;2023-12-07T13:15:00;37.92;;;16.38;;
68923;SDS011;55961;52.156;20.942;2023-12-07T13:17:26;42.13;;;18.27;;
68923;SDS011;55961;52.156;20.942;2023-12-07T13:19:52;46.97;;;19.67;;
68923;SDS011;55961;52.156;20.942;2023-12-07T13:22:19;45.25;;;19.23;;
68923;SDS011;55961;52.156;20.942;2023-12-07T13:24:47;42.83;;;19.98;;
68923;SDS011;55961;52.156;20.942;2023-12-07T13:27:15;38.35;;;16.65;;
68923;SDS011;55961;52.156;20.942;2023-12-07T13:29:41;44.38;;;18.92;;
68923;SDS011;55961;52.156;20.942;2023-12-07T13:32:07;40.50;;;16.40;;
68923;SDS011;55961;52.156;20.942;2023-12-07T13:34:33;35.22;;;14.60;;
68923;SDS011;55961;52.156;20.942;2023-12-07T13:36:59;34.93;;;16.37;;
68923;SDS011;55961;52.156;20.942;2023-12-07T13:39:25;55.65;;;23.63;;
68923;SDS011;55961;52.156;20.942;2023-12-07T13:41:52;42.60;;;18.80;;
68923;SDS011;55961;52.156;20.942;2023-12-07T13:44:20;43.28;;;17.70;;
68923;SDS011;55961;52.156;20.942;2023-12-07T13:46:46;42.28;;;18.45;;
68923;SDS011;55961;52.156;20.942;2023-12-07T13:49:12;41.67;;;17.30;;
68923;SDS011;55961;52.156;20.942;2023-12-07T13:51:39;44.22;;;17.45;;
68923;SDS011;55961;52.156;20.942;2023-12-07T13:54:07;40.17;;;17.55;;
68923;SDS011;55961;52.156;20.942;2023-12-07T13:56:33;40.70;;;17.67;;
68923;SDS011;55961;52.156;20.942;2023-12-07T13:59:00;38.55;;;16.17;;
68923;SDS011;55961;52.156;20.942;2023-12-07T14:01:27;35.73;;;13.43;;
68923;SDS011;55961;52.156;20.942;2023-12-07T14:03:54;39.30;;;18.65;;
68923;SDS011;55961;52.156;20.942;2023-12-07T14:06:21;53.92;;;20.92;;
68923;SDS011;55961;52.156;20.942;2023-12-07T14:08:49;36.75;;;15.82;;
68923;SDS011;55961;52.156;20.942;2023-12-07T14:11:15;42.93;;;18.10;;
68923;SDS011;55961;52.156;20.942;2023-12-07T14:13:42;44.03;;;16.97;;
68923;SDS011;55961;52.156;20.942;2023-12-07T14:16:08;34.72;;;14.68;;
68923;SDS011;55961;52.156;20.942;2023-12-07T14:18:34;48.40;;;19.67;;